createdAt,value
2023-11-30T00:00:19.016Z,16.599147
2023-11-30T00:05:21.183Z,16.506735
2023-11-30T00:10:25.079Z,16.506735
2023-11-30T00:15:18.822Z,16.414321
2023-11-30T00:20:18.820Z,16.321905
2023-11-30T00:25:18.783Z,16.229488
2023-11-30T00:30:25.178Z,16.229488
2023-11-30T00:35:18.846Z,16.229488
2023-11-30T00:41:02.311Z,16.592473
2023-11-30T00:46:09.387Z,16.137069
2023-11-30T00:50:25.041Z,16.044648
2023-11-30T00:55:25.101Z,16.499848
2023-11-30T01:00:25.161Z,16.499848
2023-11-30T01:05:18.825Z,16.499848
2023-11-30T01:10:18.839Z,16.499848
2023-11-30T01:15:56.173Z,16.407221
2023-11-30T01:20:18.840Z,16.407221
2023-11-30T01:25:18.900Z,16.314593
2023-11-30T01:30:18.900Z,16.668698
2023-11-30T01:35:18.880Z,16.668698
2023-11-30T01:40:18.891Z,16.575866
2023-11-30T01:46:04.147Z,16.575866
2023-11-30T01:50:17.072Z,16.575866
2023-11-30T01:56:02.439Z,16.575866
2023-11-30T02:01:02.406Z,16.575866
2023-11-30T02:06:02.361Z,16.575866
2023-11-30T02:10:18.902Z,16.575866
2023-11-30T02:15:18.981Z,16.575866
2023-11-30T02:20:17.114Z,16.575866
2023-11-30T02:25:17.042Z,16.483032
2023-11-30T02:30:19.000Z,16.483032
2023-11-30T02:35:18.875Z,16.483032
2023-11-30T02:40:18.880Z,16.483032
2023-11-30T02:45:18.919Z,16.921804
2023-11-30T02:50:18.940Z,16.828770
2023-11-30T02:56:02.392Z,16.828770
2023-11-30T03:01:02.391Z,16.828770
2023-11-30T03:05:18.941Z,16.828770
2023-11-30T03:10:17.191Z,16.828770
2023-11-30T03:15:17.109Z,16.828770
2023-11-30T03:20:17.117Z,16.828770
2023-11-30T03:25:17.142Z,16.642699
2023-11-30T03:30:18.974Z,16.980362
2023-11-30T03:35:18.951Z,16.887128
2023-11-30T03:40:25.161Z,16.793893
2023-11-30T03:46:02.440Z,17.123756
2023-11-30T03:50:17.148Z,16.936895
2023-11-30T03:55:17.126Z,16.936895
2023-11-30T04:00:17.168Z,17.165596
2023-11-30T04:05:18.942Z,17.165596
2023-11-30T04:11:02.440Z,17.071972
2023-11-30T04:15:19.009Z,16.978347
2023-11-30T04:20:18.999Z,16.978347
2023-11-30T04:25:18.941Z,17.293191
2023-11-30T04:30:17.354Z,16.884720
2023-11-30T04:36:02.480Z,16.884720
2023-11-30T04:40:17.191Z,16.884720
2023-11-30T04:45:19.090Z,16.791092
2023-11-30T04:50:25.211Z,17.199378
2023-11-30T04:55:18.944Z,17.105563
2023-11-30T05:00:18.289Z,17.105563
2023-11-30T05:06:15.748Z,17.105563
2023-11-30T05:10:18.213Z,16.917929
2023-11-30T05:16:01.748Z,16.917929
2023-11-30T05:21:01.739Z,17.011747
2023-11-30T05:25:18.219Z,16.603831
2023-11-30T05:30:24.497Z,16.697462
2023-11-30T05:35:24.456Z,16.376277
2023-11-30T05:40:18.231Z,16.469717
2023-11-30T05:45:16.598Z,16.141204
2023-11-30T05:50:24.525Z,16.234449
2023-11-30T05:56:01.764Z,16.141204
2023-11-30T06:00:18.265Z,16.234449
2023-11-30T06:05:16.547Z,16.141204
2023-11-30T06:10:16.300Z,16.141204
2023-11-30T06:15:24.484Z,16.047956
2023-11-30T06:20:18.306Z,16.047956
2023-11-30T06:25:18.259Z,16.376277
2023-11-30T06:31:01.852Z,16.376277
2023-11-30T06:35:16.296Z,16.376277
2023-11-30T06:40:18.297Z,16.791092
2023-11-30T06:45:18.282Z,16.282836
2023-11-30T06:51:01.798Z,16.697462
2023-11-30T06:55:18.248Z,16.697462
2023-11-30T07:00:16.570Z,16.282836
2023-11-30T07:05:18.295Z,16.376277
2023-11-30T07:11:01.807Z,16.376277
2023-11-30T07:16:01.891Z,16.376277
2023-11-30T07:21:01.783Z,16.376277
2023-11-30T07:25:24.545Z,16.469717
2023-11-30T07:30:24.584Z,16.141204
2023-11-30T07:35:18.280Z,16.141204
2023-11-30T07:40:18.290Z,16.234449
2023-11-30T07:46:01.936Z,15.898353
2023-11-30T07:51:01.948Z,15.991402
2023-11-30T07:55:18.320Z,15.991402
2023-11-30T08:00:18.525Z,16.084449
2023-11-30T08:05:18.297Z,16.084449
2023-11-30T08:10:16.539Z,16.084449
2023-11-30T08:15:18.319Z,16.084449
2023-11-30T08:21:01.871Z,16.514178
2023-11-30T08:26:01.779Z,16.514178
2023-11-30T08:30:18.316Z,16.514178
2023-11-30T08:35:24.621Z,16.514178
2023-11-30T08:41:06.777Z,16.514178
2023-11-30T08:45:18.322Z,16.607418
2023-11-30T08:50:18.402Z,16.607418
2023-11-30T08:56:01.846Z,16.700656
2023-11-30T09:00:20.222Z,16.270538
2023-11-30T09:05:16.590Z,16.270538
2023-11-30T09:10:16.586Z,16.363581
2023-11-30T09:15:20.073Z,16.270538
2023-11-30T09:20:18.419Z,16.270538
2023-11-30T09:25:16.593Z,16.700656
2023-11-30T09:30:18.456Z,16.700656
2023-11-30T09:35:16.574Z,16.607418
2023-11-30T09:40:18.412Z,16.607418
2023-11-30T09:45:16.644Z,16.607418
2023-11-30T09:50:16.569Z,16.700656
2023-11-30T09:55:18.368Z,16.363581
2023-11-30T10:00:18.407Z,16.363581
2023-11-30T10:05:55.611Z,16.456622
2023-11-30T10:10:24.623Z,16.549661
2023-11-30T10:16:02.187Z,16.549661
2023-11-30T10:20:24.598Z,16.642699
2023-11-30T10:26:01.888Z,16.549661
2023-11-30T10:31:01.956Z,16.980362
2023-11-30T10:35:18.422Z,16.549661
2023-11-30T10:40:16.612Z,16.980362
2023-11-30T10:45:18.442Z,16.980362
2023-11-30T10:50:24.645Z,16.887128
2023-11-30T10:55:18.375Z,16.363581
2023-11-30T11:00:16.681Z,16.793893
2023-11-30T11:05:16.577Z,16.700656
2023-11-30T11:11:01.875Z,16.607418
2023-11-30T11:16:01.976Z,16.514178
2023-11-30T11:20:18.870Z,16.514178
2023-11-30T11:25:18.422Z,16.843462
2023-11-30T11:30:18.507Z,16.327694
2023-11-30T11:36:01.893Z,16.750028
2023-11-30T11:41:01.980Z,16.656593
2023-11-30T11:46:02.013Z,16.234449
2023-11-30T11:50:18.459Z,16.563156
2023-11-30T11:56:01.902Z,16.563156
2023-11-30T12:00:18.653Z,16.563156
2023-11-30T12:05:18.444Z,16.469717
2023-11-30T12:10:18.433Z,16.469717
2023-11-30T12:15:16.754Z,16.469717
2023-11-30T12:20:18.445Z,16.469717
2023-11-30T12:25:18.470Z,16.469717
2023-11-30T12:31:01.980Z,16.047956
2023-11-30T12:36:01.913Z,16.563156
2023-11-30T12:41:01.927Z,16.563156
2023-11-30T12:45:18.481Z,16.656593
2023-11-30T12:50:18.535Z,16.750028
2023-11-30T12:56:01.910Z,16.420937
2023-11-30T13:00:18.496Z,16.607418
2023-11-30T13:06:01.963Z,16.793893
2023-11-30T13:10:18.428Z,16.549661
2023-11-30T13:15:18.538Z,16.642699
2023-11-30T13:20:18.508Z,16.390196
2023-11-30T13:25:18.471Z,16.575866
2023-11-30T13:31:02.102Z,16.854358
2023-11-30T13:35:16.762Z,17.040012
2023-11-30T13:40:16.776Z,17.225660
2023-11-30T13:45:18.537Z,17.055574
2023-11-30T13:50:26.258Z,17.333415
2023-11-30T13:55:18.469Z,17.153586
2023-11-30T14:00:16.703Z,17.430783
2023-11-30T14:06:01.958Z,17.707964
2023-11-30T14:10:24.840Z,17.517396
2023-11-30T14:15:55.788Z,17.316994
2023-11-30T14:20:18.509Z,17.592866
2023-11-30T14:25:18.538Z,17.381590
2023-11-30T14:30:18.533Z,17.656781
2023-11-30T14:35:16.602Z,18.023679
2023-11-30T14:41:02.008Z,18.390547
2023-11-30T14:45:18.567Z,18.166164
2023-11-30T14:50:18.564Z,18.532099
2023-11-30T14:55:18.464Z,18.806530
2023-11-30T15:00:18.709Z,19.263879
2023-11-30T15:06:02.005Z,19.538266
2023-11-30T15:11:02.056Z,19.904090
2023-11-30T15:16:02.202Z,19.664228
2023-11-30T15:20:20.345Z,20.029096
2023-11-30T15:26:02.000Z,20.302728
2023-11-30T15:31:02.023Z,19.958611
2023-11-30T15:35:18.532Z,20.140554
2023-11-30T15:40:18.756Z,20.413454
2023-11-30T15:45:19.050Z,20.595378
2023-11-30T15:50:18.537Z,20.777294
2023-11-30T15:55:16.537Z,21.050154
2023-11-30T16:01:02.028Z,21.944162
2023-11-30T16:05:24.770Z,22.400008
2023-11-30T16:10:18.596Z,22.050490
2023-11-30T16:15:18.522Z,22.323269
2023-11-30T16:20:18.585Z,21.961258
2023-11-30T16:26:02.109Z,22.142621
2023-11-30T16:31:02.115Z,22.233299
2023-11-30T16:36:02.085Z,22.414650
2023-11-30T16:41:02.060Z,22.414650
2023-11-30T16:46:02.142Z,22.505322
2023-11-30T16:51:02.040Z,22.686661
2023-11-30T16:55:18.561Z,22.219969
2023-11-30T17:00:18.717Z,22.310392
2023-11-30T17:05:18.574Z,22.400814
2023-11-30T17:10:16.756Z,22.672065
2023-11-30T17:15:18.599Z,22.852889
2023-11-30T17:20:55.848Z,23.214514
2023-11-30T17:25:18.671Z,24.137088
2023-11-30T17:31:02.095Z,23.756889
2023-11-30T17:36:02.083Z,23.453865
2023-11-30T17:40:18.611Z,23.724267
2023-11-30T17:45:18.632Z,23.904524
2023-11-30T17:50:18.569Z,23.994649
2023-11-30T17:55:19.399Z,24.174894
2023-11-30T18:01:02.126Z,23.676006
2023-11-30T18:05:24.803Z,23.855733
2023-11-30T18:10:18.629Z,23.945594
2023-11-30T18:16:04.084Z,23.855733
2023-11-30T18:20:18.638Z,23.945594
2023-11-30T18:25:18.608Z,24.035452
2023-11-30T18:31:12.040Z,24.125308
2023-11-30T18:35:16.776Z,24.215162
2023-11-30T18:40:18.688Z,24.215162
2023-11-30T18:45:18.613Z,24.394864
2023-11-30T18:50:18.604Z,24.574558
2023-11-30T18:55:16.797Z,24.059354
2023-11-30T19:00:18.649Z,24.059354
2023-11-30T19:05:18.638Z,23.440397
2023-11-30T19:10:16.800Z,23.351075
2023-11-30T19:15:24.900Z,23.351075
2023-11-30T19:20:18.649Z,24.059354
2023-11-30T19:25:18.618Z,23.969769
2023-11-30T19:30:18.686Z,24.059354
2023-11-30T19:35:16.805Z,24.059354
2023-11-30T19:40:24.896Z,24.148937
2023-11-30T19:46:03.280Z,24.754243
2023-11-30T19:50:16.720Z,24.844082
2023-11-30T19:56:02.153Z,24.844082
2023-11-30T20:01:02.239Z,24.933919
2023-11-30T20:05:18.706Z,25.023754
2023-11-30T20:11:02.095Z,25.706641
2023-11-30T20:16:02.153Z,25.706641
2023-11-30T20:21:02.108Z,25.113587
2023-11-30T20:26:02.125Z,25.023754
2023-11-30T20:31:02.209Z,24.844082
2023-11-30T20:35:18.653Z,25.256189
2023-11-30T20:41:02.160Z,24.985893
2023-11-30T20:46:02.124Z,24.715579
2023-11-30T20:51:02.184Z,25.022151
2023-11-30T20:55:16.910Z,24.841423
2023-11-30T21:00:16.928Z,24.660688
2023-11-30T21:06:02.285Z,25.043348
2023-11-30T21:10:24.943Z,24.952731
2023-11-30T21:15:18.667Z,24.771491
2023-11-30T21:21:02.139Z,25.140966
2023-11-30T21:25:18.684Z,25.050102
2023-11-30T21:30:18.691Z,25.498512
2023-11-30T21:35:16.825Z,25.316307
2023-11-30T21:40:16.864Z,25.225202
2023-11-30T21:46:02.195Z,25.570604
2023-11-30T21:51:02.170Z,25.479265
2023-11-30T21:55:24.889Z,25.296581
2023-11-30T22:00:18.786Z,25.205236
2023-11-30T22:05:24.174Z,25.630320
2023-11-30T22:10:18.699Z,25.447173
2023-11-30T22:15:20.485Z,25.355597
2023-11-30T22:20:18.748Z,25.769924
2023-11-30T22:25:18.698Z,25.586322
2023-11-30T22:30:18.708Z,25.990524
2023-11-30T22:35:18.723Z,26.385407
2023-11-30T22:40:16.902Z,26.385407
2023-11-30T22:46:02.219Z,26.771317
2023-11-30T22:50:25.026Z,26.771317
2023-11-30T22:55:18.828Z,27.241231
2023-11-30T23:00:18.763Z,27.241231
2023-11-30T23:05:17.022Z,27.610356
2023-11-30T23:10:18.895Z,27.610356
2023-11-30T23:15:18.709Z,27.971426
2023-11-30T23:21:02.227Z,27.878369
2023-11-30T23:25:24.937Z,28.324718
2023-11-30T23:30:18.759Z,28.324718
2023-11-30T23:35:18.742Z,28.231464
2023-11-30T23:40:18.736Z,28.577043
2023-11-30T23:46:02.237Z,28.483593
2023-11-30T23:50:25.177Z,28.821714
2023-11-30T23:55:18.810Z,28.821714
